sensor_id;sensor_type;location;lat;lon;timestamp;pressure;altitude;pressure_sealevel;temperature;humidity
25080;BME280;13071;48.868;9.996;2023-03-14T00:01:44;95047.88;;;8.23;100.00
25080;BME280;13071;48.868;9.996;2023-03-14T00:04:11;95066.00;;;8.61;100.00
25080;BME280;13071;48.868;9.996;2023-03-14T00:06:37;95055.00;;;8.31;100.00
25080;BME280;13071;48.868;9.996;2023-03-14T00:09:04;95028.38;;;8.30;100.00
25080;BME280;13071;48.868;9.996;2023-03-14T00:11:31;94993.84;;;8.35;100.00
25080;BME280;13071;48.868;9.996;2023-03-14T00:13:57;94990.47;;;8.38;100.00
25080;BME280;13071;48.868;9.996;2023-03-14T00:16:25;94975.16;;;8.27;100.00
25080;BME280;13071;48.868;9.996;2023-03-14T00:18:53;94974.13;;;8.31;100.00
25080;BME280;13071;48.868;9.996;2023-03-14T00:21:19;94973.56;;;8.41;100.00
25080;BME280;13071;48.868;9.996;2023-03-14T00:23:46;94969.78;;;8.27;100.00
25080;BME280;13071;48.868;9.996;2023-03-14T00:26:14;94969.22;;;8.56;100.00
25080;BME280;13071;48.868;9.996;2023-03-14T00:28:42;94970.94;;;8.45;100.00
25080;BME280;13071;48.868;9.996;2023-03-14T00:31:10;94965.53;;;8.45;100.00
25080;BME280;13071;48.868;9.996;2023-03-14T00:33:37;94956.88;;;8.55;100.00
25080;BME280;13071;48.868;9.996;2023-03-14T00:36:07;94945.69;;;8.53;100.00
25080;BME280;13071;48.868;9.996;2023-03-14T00:38:35;94919.91;;;8.55;100.00
25080;BME280;13071;48.868;9.996;2023-03-14T00:41:03;94881.63;;;8.46;100.00
25080;BME280;13071;48.868;9.996;2023-03-14T00:43:29;94895.03;;;8.43;100.00
25080;BME280;13071;48.868;9.996;2023-03-14T00:45:56;94889.72;;;8.46;100.00
25080;BME280;13071;48.868;9.996;2023-03-14T00:48:23;94875.44;;;8.46;100.00
25080;BME280;13071;48.868;9.996;2023-03-14T00:50:49;94834.66;;;8.47;100.00
25080;BME280;13071;48.868;9.996;2023-03-14T00:53:18;94799.84;;;8.39;100.00
25080;BME280;13071;48.868;9.996;2023-03-14T00:55:45;94821.53;;;8.68;100.00
25080;BME280;13071;48.868;9.996;2023-03-14T00:58:13;94848.47;;;8.91;100.00
25080;BME280;13071;48.868;9.996;2023-03-14T01:00:41;94845.34;;;8.63;100.00
25080;BME280;13071;48.868;9.996;2023-03-14T01:03:08;94839.44;;;8.80;100.00
25080;BME280;13071;48.868;9.996;2023-03-14T01:05:35;94873.63;;;8.73;100.00
25080;BME280;13071;48.868;9.996;2023-03-14T01:08:01;94869.59;;;8.63;100.00
25080;BME280;13071;48.868;9.996;2023-03-14T01:10:30;94886.03;;;8.77;100.00
25080;BME280;13071;48.868;9.996;2023-03-14T01:12:57;94895.72;;;8.82;100.00
25080;BME280;13071;48.868;9.996;2023-03-14T01:15:23;94897.53;;;8.97;100.00
25080;BME280;13071;48.868;9.996;2023-03-14T01:17:50;94895.47;;;8.90;100.00
25080;BME280;13071;48.868;9.996;2023-03-14T01:20:17;94900.88;;;8.90;100.00
25080;BME280;13071;48.868;9.996;2023-03-14T01:22:44;94896.34;;;8.98;100.00
25080;BME280;13071;48.868;9.996;2023-03-14T01:25:14;94889.03;;;8.98;100.00
25080;BME280;13071;48.868;9.996;2023-03-14T01:27:43;94888.50;;;9.12;100.00
25080;BME280;13071;48.868;9.996;2023-03-14T01:30:11;94889.59;;;8.85;100.00
25080;BME280;13071;48.868;9.996;2023-03-14T01:32:39;94897.94;;;8.76;100.00
25080;BME280;13071;48.868;9.996;2023-03-14T01:35:06;94892.00;;;8.90;100.00
25080;BME280;13071;48.868;9.996;2023-03-14T01:37:33;94884.50;;;8.80;100.00
25080;BME280;13071;48.868;9.996;2023-03-14T01:40:00;94879.47;;;8.78;100.00
25080;BME280;13071;48.868;9.996;2023-03-14T01:42:28;94866.41;;;8.80;100.00
25080;BME280;13071;48.868;9.996;2023-03-14T01:44:57;94861.56;;;8.66;100.00
25080;BME280;13071;48.868;9.996;2023-03-14T01:47:25;94842.78;;;8.74;100.00
25080;BME280;13071;48.868;9.996;2023-03-14T01:49:55;94834.25;;;8.68;100.00
25080;BME280;13071;48.868;9.996;2023-03-14T01:52:25;94844.41;;;8.78;100.00
25080;BME280;13071;48.868;9.996;2023-03-14T01:54:55;94850.13;;;8.73;100.00
25080;BME280;13071;48.868;9.996;2023-03-14T01:57:29;94829.94;;;8.90;100.00
25080;BME280;13071;48.868;9.996;2023-03-14T02:00:00;94827.16;;;8.83;100.00
25080;BME280;13071;48.868;9.996;2023-03-14T02:02:35;94821.59;;;8.72;100.00
25080;BME280;13071;48.868;9.996;2023-03-14T02:05:03;94816.81;;;8.88;100.00
25080;BME280;13071;48.868;9.996;2023-03-14T02:07:34;94810.41;;;8.96;100.00
25080;BME280;13071;48.868;9.996;2023-03-14T02:10:03;94806.25;;;8.76;100.00
25080;BME280;13071;48.868;9.996;2023-03-14T02:12:30;94810.16;;;8.56;100.00
25080;BME280;13071;48.868;9.996;2023-03-14T02:14:59;94800.41;;;8.48;100.00
25080;BME280;13071;48.868;9.996;2023-03-14T02:17:25;94796.06;;;8.66;100.00
25080;BME280;13071;48.868;9.996;2023-03-14T02:20:05;94785.38;;;8.47;100.00
25080;BME280;13071;48.868;9.996;2023-03-14T02:22:35;94788.88;;;8.51;100.00
25080;BME280;13071;48.868;9.996;2023-03-14T02:25:07;94781.06;;;8.42;100.00
25080;BME280;13071;48.868;9.996;2023-03-14T02:27:36;94774.34;;;8.33;100.00
25080;BME280;13071;48.868;9.996;2023-03-14T02:30:05;94779.84;;;8.40;100.00
25080;BME280;13071;48.868;9.996;2023-03-14T02:32:33;94778.72;;;8.41;100.00
25080;BME280;13071;48.868;9.996;2023-03-14T02:35:05;94784.75;;;8.57;99.21
25080;BME280;13071;48.868;9.996;2023-03-14T02:37:37;94782.88;;;8.61;98.52
25080;BME280;13071;48.868;9.996;2023-03-14T02:40:05;94795.75;;;8.71;97.90
25080;BME280;13071;48.868;9.996;2023-03-14T02:42:32;94783.00;;;8.68;97.66
25080;BME280;13071;48.868;9.996;2023-03-14T02:48:08;94772.94;;;8.65;97.03
25080;BME280;13071;48.868;9.996;2023-03-14T02:50:37;94772.47;;;8.37;98.58
25080;BME280;13071;48.868;9.996;2023-03-14T02:53:04;94765.63;;;8.65;98.07
25080;BME280;13071;48.868;9.996;2023-03-14T02:55:30;94761.63;;;8.56;98.17
25080;BME280;13071;48.868;9.996;2023-03-14T02:57:57;94744.56;;;8.48;98.53
25080;BME280;13071;48.868;9.996;2023-03-14T03:00:25;94745.25;;;8.68;98.33
25080;BME280;13071;48.868;9.996;2023-03-14T03:02:53;94763.19;;;8.57;98.28
25080;BME280;13071;48.868;9.996;2023-03-14T03:05:19;94754.09;;;8.42;99.46
25080;BME280;13071;48.868;9.996;2023-03-14T03:07:46;94755.41;;;8.52;99.01
25080;BME280;13071;48.868;9.996;2023-03-14T03:10:12;94748.75;;;8.46;99.27
25080;BME280;13071;48.868;9.996;2023-03-14T03:12:39;94757.31;;;8.51;99.39
25080;BME280;13071;48.868;9.996;2023-03-14T03:15:06;94750.13;;;8.36;100.00
25080;BME280;13071;48.868;9.996;2023-03-14T03:17:35;94736.88;;;8.28;100.00
25080;BME280;13071;48.868;9.996;2023-03-14T03:20:01;94732.78;;;8.34;99.96
25080;BME280;13071;48.868;9.996;2023-03-14T03:22:30;94748.63;;;8.61;99.52
25080;BME280;13071;48.868;9.996;2023-03-14T03:24:57;94743.09;;;8.54;98.39
25080;BME280;13071;48.868;9.996;2023-03-14T03:27:23;94739.09;;;8.68;98.28
25080;BME280;13071;48.868;9.996;2023-03-14T03:29:50;94732.50;;;8.65;99.04
25080;BME280;13071;48.868;9.996;2023-03-14T03:32:17;94727.00;;;8.58;98.94
25080;BME280;13071;48.868;9.996;2023-03-14T03:34:44;94719.09;;;8.46;100.00
25080;BME280;13071;48.868;9.996;2023-03-14T03:37:11;94709.72;;;8.36;100.00
25080;BME280;13071;48.868;9.996;2023-03-14T03:39:38;94699.09;;;8.47;99.30
25080;BME280;13071;48.868;9.996;2023-03-14T03:42:04;94699.06;;;8.43;98.75
25080;BME280;13071;48.868;9.996;2023-03-14T03:44:31;94704.19;;;8.52;98.26
25080;BME280;13071;48.868;9.996;2023-03-14T03:46:57;94712.63;;;8.50;98.76
25080;BME280;13071;48.868;9.996;2023-03-14T03:49:28;94713.06;;;8.52;98.51
25080;BME280;13071;48.868;9.996;2023-03-14T03:51:56;94700.47;;;8.63;98.33
25080;BME280;13071;48.868;9.996;2023-03-14T03:54:23;94706.16;;;8.55;98.51
25080;BME280;13071;48.868;9.996;2023-03-14T03:56:49;94696.44;;;8.50;98.86
25080;BME280;13071;48.868;9.996;2023-03-14T03:59:16;94702.63;;;8.51;98.93
25080;BME280;13071;48.868;9.996;2023-03-14T04:01:43;94692.50;;;8.44;99.21
25080;BME280;13071;48.868;9.996;2023-03-14T04:04:09;94685.88;;;8.38;99.39
25080;BME280;13071;48.868;9.996;2023-03-14T04:06:36;94690.59;;;8.71;97.80
25080;BME280;13071;48.868;9.996;2023-03-14T04:09:04;94684.22;;;8.56;97.80
25080;BME280;13071;48.868;9.996;2023-03-14T04:11:31;94683.53;;;8.37;98.70
25080;BME280;13071;48.868;9.996;2023-03-14T04:13:58;94694.19;;;8.30;99.12
25080;BME280;13071;48.868;9.996;2023-03-14T04:16:25;94701.19;;;8.34;98.76
25080;BME280;13071;48.868;9.996;2023-03-14T04:18:52;94696.41;;;8.47;97.92
25080;BME280;13071;48.868;9.996;2023-03-14T04:21:19;94690.22;;;8.46;97.46
25080;BME280;13071;48.868;9.996;2023-03-14T04:23:45;94709.38;;;8.38;98.57
25080;BME280;13071;48.868;9.996;2023-03-14T04:26:13;94711.22;;;8.34;98.51
25080;BME280;13071;48.868;9.996;2023-03-14T04:28:40;94704.13;;;8.48;97.30
25080;BME280;13071;48.868;9.996;2023-03-14T04:31:07;94712.63;;;8.50;96.99
25080;BME280;13071;48.868;9.996;2023-03-14T04:33:34;94713.25;;;8.40;97.26
25080;BME280;13071;48.868;9.996;2023-03-14T04:36:03;94694.84;;;8.46;95.90
25080;BME280;13071;48.868;9.996;2023-03-14T04:38:29;94709.75;;;8.62;94.85
25080;BME280;13071;48.868;9.996;2023-03-14T04:40:56;94713.41;;;8.51;94.31
25080;BME280;13071;48.868;9.996;2023-03-14T04:43:24;94707.44;;;8.38;94.75
25080;BME280;13071;48.868;9.996;2023-03-14T04:45:51;94706.03;;;8.25;95.16
25080;BME280;13071;48.868;9.996;2023-03-14T04:48:18;94703.91;;;8.34;95.14
25080;BME280;13071;48.868;9.996;2023-03-14T04:50:46;94706.38;;;8.43;93.37
25080;BME280;13071;48.868;9.996;2023-03-14T04:53:12;94699.56;;;8.52;91.66
25080;BME280;13071;48.868;9.996;2023-03-14T04:55:39;94695.09;;;8.37;92.27
25080;BME280;13071;48.868;9.996;2023-03-14T04:58:06;94687.38;;;8.36;92.47
25080;BME280;13071;48.868;9.996;2023-03-14T05:00:34;94682.75;;;8.36;91.75
25080;BME280;13071;48.868;9.996;2023-03-14T05:03:00;94679.22;;;8.58;91.09
25080;BME280;13071;48.868;9.996;2023-03-14T05:05:27;94673.16;;;8.39;91.58
25080;BME280;13071;48.868;9.996;2023-03-14T05:07:54;94664.75;;;8.44;91.14
25080;BME280;13071;48.868;9.996;2023-03-14T05:10:20;94660.66;;;8.27;91.35
25080;BME280;13071;48.868;9.996;2023-03-14T05:12:47;94652.34;;;8.36;91.68
25080;BME280;13071;48.868;9.996;2023-03-14T05:15:13;94657.38;;;8.14;92.03
25080;BME280;13071;48.868;9.996;2023-03-14T05:17:41;94648.97;;;8.19;92.28
25080;BME280;13071;48.868;9.996;2023-03-14T05:20:09;94642.88;;;8.22;92.77
25080;BME280;13071;48.868;9.996;2023-03-14T05:22:38;94650.47;;;8.40;90.73
25080;BME280;13071;48.868;9.996;2023-03-14T05:25:05;94650.97;;;8.22;91.07
25080;BME280;13071;48.868;9.996;2023-03-14T05:27:32;94640.13;;;8.19;91.78
25080;BME280;13071;48.868;9.996;2023-03-14T05:29:59;94645.84;;;8.14;90.83
25080;BME280;13071;48.868;9.996;2023-03-14T05:32:25;94641.94;;;8.11;91.39
25080;BME280;13071;48.868;9.996;2023-03-14T05:34:53;94641.06;;;8.04;91.83
25080;BME280;13071;48.868;9.996;2023-03-14T05:37:23;94635.72;;;8.07;91.63
25080;BME280;13071;48.868;9.996;2023-03-14T05:39:49;94641.59;;;8.13;91.12
25080;BME280;13071;48.868;9.996;2023-03-14T05:42:16;94633.97;;;8.18;91.15
25080;BME280;13071;48.868;9.996;2023-03-14T05:44:43;94636.44;;;8.04;91.16
25080;BME280;13071;48.868;9.996;2023-03-14T05:47:09;94627.13;;;7.98;92.22
25080;BME280;13071;48.868;9.996;2023-03-14T05:49:36;94620.56;;;7.99;91.29
25080;BME280;13071;48.868;9.996;2023-03-14T05:52:04;94615.97;;;8.26;90.67
25080;BME280;13071;48.868;9.996;2023-03-14T05:54:31;94614.38;;;8.21;89.48
25080;BME280;13071;48.868;9.996;2023-03-14T05:56:57;94613.56;;;8.17;89.06
25080;BME280;13071;48.868;9.996;2023-03-14T05:59:25;94620.69;;;8.06;89.78
25080;BME280;13071;48.868;9.996;2023-03-14T06:01:52;94612.31;;;8.11;88.49
25080;BME280;13071;48.868;9.996;2023-03-14T06:04:18;94607.06;;;8.22;87.85
25080;BME280;13071;48.868;9.996;2023-03-14T06:06:45;94618.56;;;8.19;88.38
25080;BME280;13071;48.868;9.996;2023-03-14T06:09:13;94610.66;;;8.30;87.87
25080;BME280;13071;48.868;9.996;2023-03-14T06:11:39;94609.00;;;8.21;87.51
25080;BME280;13071;48.868;9.996;2023-03-14T06:14:06;94609.94;;;8.33;86.36
25080;BME280;13071;48.868;9.996;2023-03-14T06:16:32;94600.31;;;8.32;87.10
25080;BME280;13071;48.868;9.996;2023-03-14T06:18:59;94597.91;;;8.27;86.90
25080;BME280;13071;48.868;9.996;2023-03-14T06:21:25;94596.56;;;8.40;86.08
25080;BME280;13071;48.868;9.996;2023-03-14T06:23:52;94594.50;;;8.30;86.46
25080;BME280;13071;48.868;9.996;2023-03-14T06:26:20;94587.13;;;8.27;86.41
25080;BME280;13071;48.868;9.996;2023-03-14T06:28:48;94591.44;;;8.31;85.84
25080;BME280;13071;48.868;9.996;2023-03-14T06:31:16;94582.91;;;8.29;86.08
25080;BME280;13071;48.868;9.996;2023-03-14T06:33:42;94590.47;;;8.20;86.40
25080;BME280;13071;48.868;9.996;2023-03-14T06:36:09;94604.03;;;8.23;85.99
25080;BME280;13071;48.868;9.996;2023-03-14T06:38:36;94599.06;;;8.29;86.44
25080;BME280;13071;48.868;9.996;2023-03-14T06:41:03;94600.38;;;8.39;85.89
25080;BME280;13071;48.868;9.996;2023-03-14T06:43:32;94612.66;;;8.62;84.46
25080;BME280;13071;48.868;9.996;2023-03-14T06:45:59;94609.50;;;8.57;83.65
25080;BME280;13071;48.868;9.996;2023-03-14T06:48:25;94616.63;;;8.42;85.17
25080;BME280;13071;48.868;9.996;2023-03-14T06:50:52;94615.25;;;8.55;84.99
25080;BME280;13071;48.868;9.996;2023-03-14T06:53:18;94617.19;;;8.55;85.47
25080;BME280;13071;48.868;9.996;2023-03-14T06:55:45;94620.06;;;8.69;84.51
25080;BME280;13071;48.868;9.996;2023-03-14T06:58:12;94613.06;;;8.64;84.62
25080;BME280;13071;48.868;9.996;2023-03-14T07:00:40;94609.38;;;8.76;84.77
25080;BME280;13071;48.868;9.996;2023-03-14T07:03:06;94610.44;;;8.68;84.65
25080;BME280;13071;48.868;9.996;2023-03-14T07:05:33;94611.16;;;8.65;85.43
25080;BME280;13071;48.868;9.996;2023-03-14T07:07:59;94603.84;;;8.65;85.56
25080;BME280;13071;48.868;9.996;2023-03-14T07:10:26;94614.97;;;8.64;85.29
25080;BME280;13071;48.868;9.996;2023-03-14T07:12:52;94622.03;;;8.72;85.01
25080;BME280;13071;48.868;9.996;2023-03-14T07:15:19;94614.50;;;8.88;84.08
25080;BME280;13071;48.868;9.996;2023-03-14T07:17:47;94623.66;;;8.80;84.33
25080;BME280;13071;48.868;9.996;2023-03-14T07:20:14;94624.09;;;8.82;84.72
25080;BME280;13071;48.868;9.996;2023-03-14T07:22:41;94634.94;;;8.89;84.68
25080;BME280;13071;48.868;9.996;2023-03-14T07:25:08;94632.72;;;8.95;83.34
25080;BME280;13071;48.868;9.996;2023-03-14T07:27:37;94642.06;;;9.04;83.71
25080;BME280;13071;48.868;9.996;2023-03-14T07:30:05;94645.97;;;9.07;83.98
25080;BME280;13071;48.868;9.996;2023-03-14T07:32:32;94639.41;;;9.08;83.08
25080;BME280;13071;48.868;9.996;2023-03-14T07:35:00;94649.97;;;9.20;82.35
25080;BME280;13071;48.868;9.996;2023-03-14T07:37:26;94646.94;;;9.25;82.29
25080;BME280;13071;48.868;9.996;2023-03-14T07:39:53;94651.41;;;9.47;81.92
25080;BME280;13071;48.868;9.996;2023-03-14T07:42:19;94650.50;;;9.33;81.64
25080;BME280;13071;48.868;9.996;2023-03-14T07:44:46;94650.78;;;9.24;83.67
25080;BME280;13071;48.868;9.996;2023-03-14T07:47:12;94639.88;;;9.47;82.29
25080;BME280;13071;48.868;9.996;2023-03-14T07:49:39;94645.53;;;9.38;83.51
25080;BME280;13071;48.868;9.996;2023-03-14T07:52:07;94646.69;;;9.37;82.73
25080;BME280;13071;48.868;9.996;2023-03-14T07:54:33;94640.56;;;9.40;83.69
25080;BME280;13071;48.868;9.996;2023-03-14T07:57:00;94642.69;;;9.24;84.26
25080;BME280;13071;48.868;9.996;2023-03-14T07:59:27;94642.63;;;9.54;83.79
25080;BME280;13071;48.868;9.996;2023-03-14T08:01:54;94640.78;;;9.62;82.93
25080;BME280;13071;48.868;9.996;2023-03-14T08:04:20;94642.06;;;9.75;83.73
25080;BME280;13071;48.868;9.996;2023-03-14T08:06:47;94634.09;;;9.92;82.39
25080;BME280;13071;48.868;9.996;2023-03-14T08:09:15;94633.84;;;10.08;80.79
25080;BME280;13071;48.868;9.996;2023-03-14T08:11:41;94639.78;;;10.21;80.44
25080;BME280;13071;48.868;9.996;2023-03-14T08:14:08;94642.53;;;10.28;79.00
25080;BME280;13071;48.868;9.996;2023-03-14T08:16:36;94629.44;;;10.37;78.94
25080;BME280;13071;48.868;9.996;2023-03-14T08:19:02;94629.88;;;10.46;78.09
25080;BME280;13071;48.868;9.996;2023-03-14T08:21:29;94631.94;;;10.60;76.63
25080;BME280;13071;48.868;9.996;2023-03-14T08:23:55;94637.84;;;10.79;76.84
25080;BME280;13071;48.868;9.996;2023-03-14T08:26:23;94627.03;;;10.83;76.14
25080;BME280;13071;48.868;9.996;2023-03-14T08:28:50;94640.25;;;11.02;75.10
25080;BME280;13071;48.868;9.996;2023-03-14T08:31:16;94631.41;;;11.09;75.59
25080;BME280;13071;48.868;9.996;2023-03-14T08:33:43;94634.47;;;11.07;75.57
25080;BME280;13071;48.868;9.996;2023-03-14T08:36:10;94639.84;;;10.97;75.54
25080;BME280;13071;48.868;9.996;2023-03-14T08:38:36;94640.66;;;11.08;75.98
25080;BME280;13071;48.868;9.996;2023-03-14T08:41:03;94645.72;;;11.13;76.61
25080;BME280;13071;48.868;9.996;2023-03-14T08:43:31;94650.78;;;11.25;74.72
25080;BME280;13071;48.868;9.996;2023-03-14T08:45:58;94648.44;;;11.16;75.68
25080;BME280;13071;48.868;9.996;2023-03-14T08:48:26;94654.66;;;11.24;76.46
25080;BME280;13071;48.868;9.996;2023-03-14T08:50:54;94641.16;;;11.38;75.55
25080;BME280;13071;48.868;9.996;2023-03-14T08:53:21;94636.44;;;11.17;74.18
25080;BME280;13071;48.868;9.996;2023-03-14T08:55:52;94640.66;;;11.11;73.73
25080;BME280;13071;48.868;9.996;2023-03-14T08:58:19;94632.91;;;11.06;73.90
25080;BME280;13071;48.868;9.996;2023-03-14T09:00:48;94634.44;;;11.00;73.91
25080;BME280;13071;48.868;9.996;2023-03-14T09:03:14;94642.94;;;10.95;74.20
25080;BME280;13071;48.868;9.996;2023-03-14T09:05:41;94642.19;;;11.05;73.84
25080;BME280;13071;48.868;9.996;2023-03-14T09:08:07;94639.94;;;11.21;73.46
25080;BME280;13071;48.868;9.996;2023-03-14T09:10:34;94638.47;;;11.35;75.17
25080;BME280;13071;48.868;9.996;2023-03-14T09:13:00;94641.91;;;11.35;73.88
25080;BME280;13071;48.868;9.996;2023-03-14T09:15:27;94635.75;;;11.35;73.29
25080;BME280;13071;48.868;9.996;2023-03-14T09:17:55;94631.47;;;11.37;72.97
25080;BME280;13071;48.868;9.996;2023-03-14T09:20:21;94623.72;;;11.29;73.81
25080;BME280;13071;48.868;9.996;2023-03-14T09:22:48;94624.47;;;11.22;72.92
25080;BME280;13071;48.868;9.996;2023-03-14T09:25:14;94623.34;;;11.34;72.81
25080;BME280;13071;48.868;9.996;2023-03-14T09:27:41;94627.59;;;11.31;72.94
25080;BME280;13071;48.868;9.996;2023-03-14T09:30:09;94627.25;;;11.47;71.98
25080;BME280;13071;48.868;9.996;2023-03-14T09:32:36;94619.97;;;11.68;72.94
25080;BME280;13071;48.868;9.996;2023-03-14T09:35:04;94620.38;;;11.78;71.95
25080;BME280;13071;48.868;9.996;2023-03-14T09:37:31;94606.44;;;11.97;72.28
25080;BME280;13071;48.868;9.996;2023-03-14T09:39:57;94623.09;;;12.17;71.89
25080;BME280;13071;48.868;9.996;2023-03-14T09:42:26;94613.00;;;12.35;71.47
25080;BME280;13071;48.868;9.996;2023-03-14T09:44:56;94625.41;;;12.36;68.80
25080;BME280;13071;48.868;9.996;2023-03-14T09:47:23;94616.50;;;12.10;69.50
25080;BME280;13071;48.868;9.996;2023-03-14T09:49:51;94632.78;;;12.14;69.66
25080;BME280;13071;48.868;9.996;2023-03-14T09:52:22;94632.41;;;12.23;69.71
25080;BME280;13071;48.868;9.996;2023-03-14T09:54:52;94631.63;;;12.26;69.78
25080;BME280;13071;48.868;9.996;2023-03-14T09:57:24;94632.78;;;12.25;69.82
25080;BME280;13071;48.868;9.996;2023-03-14T09:59:53;94637.03;;;12.01;70.36
25080;BME280;13071;48.868;9.996;2023-03-14T10:02:22;94636.66;;;11.92;71.02
25080;BME280;13071;48.868;9.996;2023-03-14T10:04:50;94644.00;;;11.88;70.97
25080;BME280;13071;48.868;9.996;2023-03-14T10:07:21;94626.16;;;11.80;71.39
25080;BME280;13071;48.868;9.996;2023-03-14T10:09:50;94640.53;;;11.91;71.90
25080;BME280;13071;48.868;9.996;2023-03-14T10:12:18;94636.66;;;11.92;72.04
25080;BME280;13071;48.868;9.996;2023-03-14T10:14:47;94635.88;;;11.88;71.46
25080;BME280;13071;48.868;9.996;2023-03-14T10:17:16;94637.44;;;11.92;71.54
25080;BME280;13071;48.868;9.996;2023-03-14T10:19:54;94633.94;;;11.99;72.53
25080;BME280;13071;48.868;9.996;2023-03-14T10:22:24;94628.13;;;12.15;72.83
25080;BME280;13071;48.868;9.996;2023-03-14T10:24:54;94628.91;;;12.22;71.62
25080;BME280;13071;48.868;9.996;2023-03-14T10:27:23;94637.84;;;12.23;71.18
25080;BME280;13071;48.868;9.996;2023-03-14T10:29:55;94639.00;;;12.32;70.89
25080;BME280;13071;48.868;9.996;2023-03-14T10:32:28;94625.03;;;12.30;71.17
25080;BME280;13071;48.868;9.996;2023-03-14T10:35:22;94640.91;;;12.39;70.81
25080;BME280;13071;48.868;9.996;2023-03-14T10:37:52;94642.06;;;12.34;70.70
25080;BME280;13071;48.868;9.996;2023-03-14T10:40:26;94632.00;;;12.21;70.44
25080;BME280;13071;48.868;9.996;2023-03-14T10:42:54;94636.28;;;12.22;70.23
25080;BME280;13071;48.868;9.996;2023-03-14T10:45:31;94638.22;;;12.18;69.60
25080;BME280;13071;48.868;9.996;2023-03-14T10:48:05;94647.13;;;12.18;70.04
25080;BME280;13071;48.868;9.996;2023-03-14T10:50:33;94652.16;;;12.16;70.04
25080;BME280;13071;48.868;9.996;2023-03-14T10:53:03;94652.56;;;12.43;70.67
25080;BME280;13071;48.868;9.996;2023-03-14T10:55:41;94656.81;;;12.40;70.36
25080;BME280;13071;48.868;9.996;2023-03-14T10:58:19;94656.41;;;12.56;70.06
25080;BME280;13071;48.868;9.996;2023-03-14T11:00:50;94643.59;;;12.49;70.73
25080;BME280;13071;48.868;9.996;2023-03-14T11:03:18;94652.91;;;12.59;70.92
25080;BME280;13071;48.868;9.996;2023-03-14T11:05:49;94638.97;;;12.57;70.09
25080;BME280;13071;48.868;9.996;2023-03-14T11:08:25;94643.63;;;12.57;68.90
25080;BME280;13071;48.868;9.996;2023-03-14T11:11:06;94632.38;;;12.51;69.54
25080;BME280;13071;48.868;9.996;2023-03-14T11:13:39;94647.09;;;12.50;69.25
25080;BME280;13071;48.868;9.996;2023-03-14T11:16:16;94638.19;;;12.53;68.47
25080;BME280;13071;48.868;9.996;2023-03-14T11:18:56;94644.38;;;12.68;68.24
25080;BME280;13071;48.868;9.996;2023-03-14T11:21:29;94642.03;;;12.77;67.90
25080;BME280;13071;48.868;9.996;2023-03-14T11:24:12;94647.84;;;12.75;68.56
25080;BME280;13071;48.868;9.996;2023-03-14T11:26:48;94650.56;;;12.72;68.55
25080;BME280;13071;48.868;9.996;2023-03-14T11:29:21;94632.78;;;12.35;70.98
25080;BME280;13071;48.868;9.996;2023-03-14T11:31:49;94640.16;;;12.17;72.56
25080;BME280;13071;48.868;9.996;2023-03-14T11:34:25;94644.41;;;12.18;74.66
25080;BME280;13071;48.868;9.996;2023-03-14T11:36:59;94638.97;;;12.25;74.94
25080;BME280;13071;48.868;9.996;2023-03-14T11:39:36;94634.72;;;12.21;73.00
25080;BME280;13071;48.868;9.996;2023-03-14T11:42:09;94644.03;;;12.27;72.73
25080;BME280;13071;48.868;9.996;2023-03-14T11:44:39;94640.91;;;12.10;72.33
25080;BME280;13071;48.868;9.996;2023-03-14T11:47:09;94662.59;;;11.93;73.31
25080;BME280;13071;48.868;9.996;2023-03-14T11:49:42;94676.78;;;11.51;76.71
25080;BME280;13071;48.868;9.996;2023-03-14T11:52:15;94679.13;;;11.52;79.67
25080;BME280;13071;48.868;9.996;2023-03-14T11:54:48;94679.44;;;11.33;80.59
25080;BME280;13071;48.868;9.996;2023-03-14T11:57:17;94687.16;;;11.24;82.92
25080;BME280;13071;48.868;9.996;2023-03-14T11:59:50;94684.78;;;11.15;83.62
25080;BME280;13071;48.868;9.996;2023-03-14T12:02:22;94686.63;;;11.01;85.18
25080;BME280;13071;48.868;9.996;2023-03-14T12:07:58;94694.25;;;10.77;88.59
25080;BME280;13071;48.868;9.996;2023-03-14T12:10:38;94693.81;;;10.72;89.49
25080;BME280;13071;48.868;9.996;2023-03-14T12:13:07;94694.50;;;10.55;90.10
25080;BME280;13071;48.868;9.996;2023-03-14T12:15:39;94704.94;;;10.60;91.93
25080;BME280;13071;48.868;9.996;2023-03-14T12:18:19;94702.44;;;10.37;91.88
25080;BME280;13071;48.868;9.996;2023-03-14T12:20:51;94710.59;;;10.41;92.94
25080;BME280;13071;48.868;9.996;2023-03-14T12:23:20;94708.44;;;10.16;92.97
25080;BME280;13071;48.868;9.996;2023-03-14T12:26:06;94709.72;;;10.26;93.81
25080;BME280;13071;48.868;9.996;2023-03-14T12:28:33;94711.66;;;10.25;92.61
25080;BME280;13071;48.868;9.996;2023-03-14T12:34:03;94717.34;;;10.17;93.42
25080;BME280;13071;48.868;9.996;2023-03-14T12:36:52;94704.69;;;10.28;95.24
25080;BME280;13071;48.868;9.996;2023-03-14T12:39:25;94719.09;;;10.39;95.91
25080;BME280;13071;48.868;9.996;2023-03-14T12:42:04;94727.22;;;10.43;94.95
25080;BME280;13071;48.868;9.996;2023-03-14T12:44:42;94729.88;;;10.35;94.92
25080;BME280;13071;48.868;9.996;2023-03-14T12:47:55;94720.75;;;10.10;93.56
25080;BME280;13071;48.868;9.996;2023-03-14T12:50:35;94722.22;;;10.04;94.86
25080;BME280;13071;48.868;9.996;2023-03-14T12:55:58;94731.75;;;9.91;95.29
25080;BME280;13071;48.868;9.996;2023-03-14T12:58:33;94728.59;;;9.85;94.15
25080;BME280;13071;48.868;9.996;2023-03-14T13:01:03;94740.13;;;9.82;94.05
25080;BME280;13071;48.868;9.996;2023-03-14T13:03:39;94742.78;;;9.75;94.74
25080;BME280;13071;48.868;9.996;2023-03-14T13:06:10;94754.91;;;9.55;96.60
25080;BME280;13071;48.868;9.996;2023-03-14T13:08:39;94749.16;;;9.60;97.58
25080;BME280;13071;48.868;9.996;2023-03-14T13:11:09;94747.44;;;9.78;98.00
25080;BME280;13071;48.868;9.996;2023-03-14T13:13:42;94752.06;;;9.78;95.81
25080;BME280;13071;48.868;9.996;2023-03-14T13:16:15;94751.78;;;9.86;96.23
25080;BME280;13071;48.868;9.996;2023-03-14T13:18:43;94759.44;;;9.81;94.83
25080;BME280;13071;48.868;9.996;2023-03-14T13:21:13;94747.41;;;9.75;93.99
25080;BME280;13071;48.868;9.996;2023-03-14T13:23:54;94767.06;;;9.72;93.36
25080;BME280;13071;48.868;9.996;2023-03-14T13:26:21;94787.47;;;9.69;91.00